Time;durP1;ratioP1;P1;durP2;ratioP2;P2;SDS_P1;SDS_P2;PMS_P1;PMS_P2;Temp;Humidity;BMP_temperature;BMP_pressure;BME280_temperature;BME280_humidity;BME280_pressure;Samples;Min_cycle;Max_cycle;Signal;HPM_P1;HPM_P2
2023/07/12 00:01:31;;;;;;;;;;;;;;;;;;4994417;28;19926;-66
2023/07/12 00:03:57;;;;;;;;;;;;;;;;;;4994448;28;20487;-66
2023/07/12 00:06:23;;;;;;;;;;;;;;;;;;4994344;28;19925;-66
2023/07/12 00:08:49;;;;;;;;;;;;;;;;;;4994320;28;19929;-66
2023/07/12 00:11:15;;;;;;;;;;;;;;;;;;4994561;28;19976;-66
2023/07/12 00:13:41;;;;;;;;;;;;;;;;;;4993348;28;19926;-66
2023/07/12 00:16:07;;;;;;;;;;;;;;;;;;4994204;28;19957;-66
2023/07/12 00:18:33;;;;;;;;;;;;;;;;;;4994157;28;19929;-66
2023/07/12 00:20:59;;;;;;;;;;;;;;;;;;4994045;28;20287;-66
2023/07/12 00:23:25;;;;;;;;;;;;;;;;;;4992632;28;19922;-66
2023/07/12 00:25:51;;;;;;;;;;;;;;;;;;4993952;28;20384;-66
2023/07/12 00:28:17;;;;;;;;;;;;;;;;;;4994145;28;19968;-66
2023/07/12 00:30:43;;;;;;;;;;;;;;;;;;4993849;28;20027;-66
2023/07/12 00:33:09;;;;;;;;;;;;;;;;;;4993741;28;19922;-66
2023/07/12 00:35:35;;;;;;;;;;;;;;;;;;4993814;28;19937;-66
2023/07/12 00:38:01;;;;;;;;;;;;;;;;;;4993738;28;19925;-66
2023/07/12 00:40:27;;;;;;;;;;;;;;;;;;5008937;28;20088;-66
2023/07/12 00:42:53;;;;;;;;;;;;;;;;;;4993764;28;20054;-66
2023/07/12 00:45:18;;;;;;;;;;;;;;;;;;4993620;28;19932;-66
2023/07/12 00:47:44;;;;;;;;;;;;;;;;;;4993635;28;19926;-66
2023/07/12 00:50:10;;;;;;;;;;;;;;;;;;4992223;28;20303;-66
2023/07/12 00:52:36;;;;;;;;;;;;;;;;;;4993359;28;19925;-65
2023/07/12 00:55:03;;;;;;;;;;;;;;;;;;4993754;28;19933;-66
2023/07/12 00:57:29;;;;;;;;;;;;;;;;;;4993371;28;20430;-66
2023/07/12 00:59:54;;;;;;;;;;;;;;;;;;4993407;28;19925;-66
2023/07/12 01:02:24;;;;;;;;;;;;;;;;;;4993383;28;19926;-66
2023/07/12 01:04:49;;;;;;;;;;;;;;;;;;4993293;28;19934;-66
2023/07/12 01:07:15;;;;;;;;;;;;;;;;;;4993185;28;20479;-66
2023/07/12 01:09:42;;;;;;;;;;;;;;;;;;4993399;28;19968;-66
2023/07/12 01:12:08;;;;;;;;;;;;;;;;;;4992948;28;19980;-66
2023/07/12 01:14:33;;;;;;;;;;;;;;;;;;5008306;28;19926;-66
2023/07/12 01:17:00;;;;;;;;;;;;;;;;;;4993000;28;19929;-66
2023/07/12 01:19:26;;;;;;;;;;;;;;;;;;4993027;28;20400;-66
2023/07/12 01:21:52;;;;;;;;;;;;;;;;;;5007839;28;20026;-66
2023/07/12 01:24:17;;;;;;;;;;;;;;;;;;4992789;28;19926;-66
2023/07/12 01:26:43;;;;;;;;;;;;;;;;;;4992990;28;20004;-66
2023/07/12 01:29:09;;;;;;;;;;;;;;;;;;4992897;28;19995;-66
2023/07/12 01:31:35;;;;;;;;;;;;;;;;;;4992721;28;19925;-66
2023/07/12 01:34:01;;;;;;;;;;;;;;;;;;4991593;28;19926;-65
2023/07/12 01:36:27;;;;;;;;;;;;;;;;;;4992618;28;19942;-66
2023/07/12 01:38:53;;;;;;;;;;;;;;;;;;4992969;28;19925;-66
2023/07/12 01:41:19;;;;;;;;;;;;;;;;;;4991699;28;19972;-66
2023/07/12 01:43:45;;;;;;;;;;;;;;;;;;4991908;28;20014;-66
2023/07/12 01:46:11;;;;;;;;;;;;;;;;;;4991707;28;19922;-66
2023/07/12 01:48:36;;;;;;;;;;;;;;;;;;4990974;28;20669;-66
2023/07/12 01:51:02;;;;;;;;;;;;;;;;;;4991872;28;19929;-66
2023/07/12 01:53:28;;;;;;;;;;;;;;;;;;4991978;28;19922;-66
2023/07/12 01:55:54;;;;;;;;;;;;;;;;;;4992618;28;20481;-66
2023/07/12 01:58:20;;;;;;;;;;;;;;;;;;4992563;28;19976;-66
2023/07/12 02:00:46;;;;;;;;;;;;;;;;;;4992561;28;19926;-66
2023/07/12 02:03:12;;;;;;;;;;;;;;;;;;4991023;28;19928;-65
2023/07/12 02:05:38;;;;;;;;;;;;;;;;;;4991103;28;20430;-66
2023/07/12 02:08:04;;;;;;;;;;;;;;;;;;4992627;28;19926;-66
2023/07/12 02:10:30;;;;;;;;;;;;;;;;;;4992570;28;19932;-65
2023/07/12 02:12:56;;;;;;;;;;;;;;;;;;5007476;28;19922;-66
2023/07/12 02:15:22;;;;;;;;;;;;;;;;;;4992456;28;20396;-66
2023/07/12 02:17:48;;;;;;;;;;;;;;;;;;4992303;28;20342;-65
2023/07/12 02:20:13;;;;;;;;;;;;;;;;;;4992461;28;20019;-65
2023/07/12 02:22:43;;;;;;;;;;;;;;;;;;4992243;28;20282;-65
2023/07/12 02:25:09;;;;;;;;;;;;;;;;;;4992448;28;19926;-66
2023/07/12 02:27:35;;;;;;;;;;;;;;;;;;4990854;28;19996;-65
2023/07/12 02:30:01;;;;;;;;;;;;;;;;;;4992318;28;20012;-65
2023/07/12 02:32:28;;;;;;;;;;;;;;;;;;5007221;28;19922;-66
2023/07/12 02:34:54;;;;;;;;;;;;;;;;;;4992380;28;20295;-65
2023/07/12 02:37:20;;;;;;;;;;;;;;;;;;4994029;28;19925;-66
2023/07/12 02:39:46;;;;;;;;;;;;;;;;;;4994692;28;19936;-66
2023/07/12 02:42:12;;;;;;;;;;;;;;;;;;5010935;28;20279;-66
2023/07/12 02:44:38;;;;;;;;;;;;;;;;;;4995960;28;19922;-65
2023/07/12 02:47:04;;;;;;;;;;;;;;;;;;4995780;28;20487;-66
2023/07/12 02:49:30;;;;;;;;;;;;;;;;;;4995599;28;20018;-65
2023/07/12 02:51:55;;;;;;;;;;;;;;;;;;4995850;28;19932;-65
2023/07/12 02:54:21;;;;;;;;;;;;;;;;;;5010785;28;19926;-65
2023/07/12 02:56:47;;;;;;;;;;;;;;;;;;4995806;28;19929;-65
2023/07/12 02:59:13;;;;;;;;;;;;;;;;;;4995603;28;20641;-66
2023/07/12 03:01:40;;;;;;;;;;;;;;;;;;4995492;28;20012;-65
2023/07/12 03:04:06;;;;;;;;;;;;;;;;;;4994208;28;19921;-66
2023/07/12 03:06:32;;;;;;;;;;;;;;;;;;4995625;28;19925;-65
2023/07/12 03:08:58;;;;;;;;;;;;;;;;;;4995578;28;20315;-65
2023/07/12 03:11:24;;;;;;;;;;;;;;;;;;4995476;28;19922;-65
2023/07/12 03:13:50;;;;;;;;;;;;;;;;;;4993937;28;20387;-66
2023/07/12 03:16:16;;;;;;;;;;;;;;;;;;5010077;28;20399;-65
2023/07/12 03:18:42;;;;;;;;;;;;;;;;;;4994612;28;19927;-65
2023/07/12 03:21:08;;;;;;;;;;;;;;;;;;4994341;28;19922;-65
2023/07/12 03:23:33;;;;;;;;;;;;;;;;;;4995099;28;20275;-65
2023/07/12 03:25:59;;;;;;;;;;;;;;;;;;4994175;28;19925;-66
2023/07/12 03:28:25;;;;;;;;;;;;;;;;;;4994291;28;19922;-65
2023/07/12 03:30:51;;;;;;;;;;;;;;;;;;4993863;28;19952;-65
2023/07/12 03:33:17;;;;;;;;;;;;;;;;;;4993842;28;20008;-65
2023/07/12 03:35:43;;;;;;;;;;;;;;;;;;4993311;28;19934;-65
2023/07/12 03:38:09;;;;;;;;;;;;;;;;;;4992685;28;19922;-65
2023/07/12 03:40:35;;;;;;;;;;;;;;;;;;4993986;28;19928;-65
2023/07/12 03:43:01;;;;;;;;;;;;;;;;;;4993945;28;19922;-66
2023/07/12 03:45:27;;;;;;;;;;;;;;;;;;4992781;28;19998;-66
2023/07/12 03:47:53;;;;;;;;;;;;;;;;;;4993028;28;19921;-66
2023/07/12 03:50:19;;;;;;;;;;;;;;;;;;4993799;28;19928;-65
2023/07/12 03:52:44;;;;;;;;;;;;;;;;;;4992949;28;20360;-65
2023/07/12 03:55:10;;;;;;;;;;;;;;;;;;4993244;28;19984;-65
2023/07/12 03:57:41;;;;;;;;;;;;;;;;;;4993210;28;20326;-66
2023/07/12 04:00:08;;;;;;;;;;;;;;;;;;4994344;28;19933;-65
2023/07/12 04:02:34;;;;;;;;;;;;;;;;;;4994594;28;19926;-65
2023/07/12 04:05:00;;;;;;;;;;;;;;;;;;4994424;28;19926;-65
2023/07/12 04:07:26;;;;;;;;;;;;;;;;;;4994413;28;19929;-65
2023/07/12 04:09:52;;;;;;;;;;;;;;;;;;4994321;28;19961;-66
2023/07/12 04:12:18;;;;;;;;;;;;;;;;;;4994203;28;20716;-65
2023/07/12 04:14:44;;;;;;;;;;;;;;;;;;4994051;28;19930;-65
2023/07/12 04:17:10;;;;;;;;;;;;;;;;;;4994267;28;20291;-65
2023/07/12 04:19:36;;;;;;;;;;;;;;;;;;4992718;28;19921;-65
2023/07/12 04:22:01;;;;;;;;;;;;;;;;;;4993906;28;19929;-65
2023/07/12 04:24:27;;;;;;;;;;;;;;;;;;4992726;28;19960;-65
2023/07/12 04:26:53;;;;;;;;;;;;;;;;;;4994060;28;19932;-65
2023/07/12 04:29:19;;;;;;;;;;;;;;;;;;4993707;28;20579;-65
2023/07/12 04:31:45;;;;;;;;;;;;;;;;;;4976298;28;19965;-65
2023/07/12 04:34:11;;;;;;;;;;;;;;;;;;4993741;28;19936;-65
2023/07/12 04:36:37;;;;;;;;;;;;;;;;;;4993845;28;20015;-65
2023/07/12 04:39:03;;;;;;;;;;;;;;;;;;4993797;28;19925;-65
2023/07/12 04:41:29;;;;;;;;;;;;;;;;;;4993605;28;19968;-65
2023/07/12 04:43:54;;;;;;;;;;;;;;;;;;4992261;28;20012;-65
2023/07/12 04:46:20;;;;;;;;;;;;;;;;;;4993716;28;19930;-65
2023/07/12 04:48:47;;;;;;;;;;;;;;;;;;4993649;28;20456;-65
2023/07/12 04:51:13;;;;;;;;;;;;;;;;;;4993463;28;19930;-65
2023/07/12 04:53:41;;;;;;;;;;;;;;;;;;4993438;28;19929;-65
2023/07/12 04:56:07;;;;;;;;;;;;;;;;;;4993190;28;19926;-65
2023/07/12 04:58:33;;;;;;;;;;;;;;;;;;4993534;28;19932;-65
2023/07/12 05:00:59;;;;;;;;;;;;;;;;;;4992558;28;19926;-65
2023/07/12 05:03:25;;;;;;;;;;;;;;;;;;4993340;28;19935;-65
2023/07/12 05:05:52;;;;;;;;;;;;;;;;;;4993166;28;19922;-66
2023/07/12 05:08:18;;;;;;;;;;;;;;;;;;4993191;28;19964;-65
2023/07/12 05:10:43;;;;;;;;;;;;;;;;;;4993021;28;19957;-65
2023/07/12 05:13:09;;;;;;;;;;;;;;;;;;4992912;28;19965;-65
2023/07/12 05:15:35;;;;;;;;;;;;;;;;;;4991770;28;19925;-66
2023/07/12 05:18:01;;;;;;;;;;;;;;;;;;4993123;28;19922;-65
2023/07/12 05:20:27;;;;;;;;;;;;;;;;;;4992863;28;19933;-66
2023/07/12 05:22:53;;;;;;;;;;;;;;;;;;4992757;28;20413;-65
2023/07/12 05:25:19;;;;;;;;;;;;;;;;;;4992737;28;20376;-65
2023/07/12 05:27:45;;;;;;;;;;;;;;;;;;4992781;28;20004;-65
2023/07/12 05:30:11;;;;;;;;;;;;;;;;;;4992828;28;20466;-65
2023/07/12 05:32:36;;;;;;;;;;;;;;;;;;4992829;28;20399;-66
2023/07/12 05:35:03;;;;;;;;;;;;;;;;;;4992908;28;19980;-66
2023/07/12 05:37:29;;;;;;;;;;;;;;;;;;4992286;28;19925;-66
2023/07/12 05:39:55;;;;;;;;;;;;;;;;;;4990359;28;20387;-65
2023/07/12 05:42:21;;;;;;;;;;;;;;;;;;4991774;28;19926;-66
2023/07/12 05:44:47;;;;;;;;;;;;;;;;;;4991881;28;19976;-66
2023/07/12 05:47:13;;;;;;;;;;;;;;;;;;4991788;28;19937;-66
2023/07/12 05:49:39;;;;;;;;;;;;;;;;;;4992037;28;19926;-65
2023/07/12 05:52:05;;;;;;;;;;;;;;;;;;4992330;28;19922;-66
2023/07/12 05:54:30;;;;;;;;;;;;;;;;;;4992266;28;19976;-65
2023/07/12 05:56:57;;;;;;;;;;;;;;;;;;4991047;28;19926;-65
2023/07/12 05:59:23;;;;;;;;;;;;;;;;;;4992484;28;20307;-66
2023/07/12 06:01:49;;;;;;;;;;;;;;;;;;4991184;28;19922;-65
2023/07/12 06:04:15;;;;;;;;;;;;;;;;;;4992198;28;19930;-65
2023/07/12 06:06:41;;;;;;;;;;;;;;;;;;4992389;28;19921;-65
2023/07/12 06:09:07;;;;;;;;;;;;;;;;;;4990933;28;19930;-66
2023/07/12 06:11:33;;;;;;;;;;;;;;;;;;4994552;28;19929;-65
2023/07/12 06:13:59;;;;;;;;;;;;;;;;;;4996495;28;19926;-65
2023/07/12 06:16:25;;;;;;;;;;;;;;;;;;4996273;28;20013;-65
2023/07/12 06:18:51;;;;;;;;;;;;;;;;;;4996356;28;20009;-65
2023/07/12 06:21:17;;;;;;;;;;;;;;;;;;4996074;28;19929;-65
2023/07/12 06:23:43;;;;;;;;;;;;;;;;;;4978682;28;20383;-66
2023/07/12 06:26:09;;;;;;;;;;;;;;;;;;4995986;28;19975;-65
2023/07/12 06:28:34;;;;;;;;;;;;;;;;;;4994711;28;20021;-65
2023/07/12 06:31:00;;;;;;;;;;;;;;;;;;4996146;28;20057;-65
2023/07/12 06:33:26;;;;;;;;;;;;;;;;;;4995961;28;19922;-65
2023/07/12 06:38:24;;;;;;;;;;;;;;;;;;5030847;28;20370;-62
2023/07/12 06:40:50;;;;;;;;;;;;;;;;;;5034437;28;20000;-61
2023/07/12 06:43:15;;;;;;;;;;;;;;;;;;5033146;28;19925;-61
2023/07/12 06:45:41;;;;;;;;;;;;;;;;;;5034917;28;19928;-61
2023/07/12 06:48:07;;;;;;;;;;;;;;;;;;5035054;28;20307;-62
2023/07/12 06:50:33;;;;;;;;;;;;;;;;;;5033601;28;19921;-61
2023/07/12 06:52:59;;;;;;;;;;;;;;;;;;5034748;28;19929;-61
2023/07/12 06:55:25;;;;;;;;;;;;;;;;;;5034970;28;19921;-62
2023/07/12 06:57:51;;;;;;;;;;;;;;;;;;5034962;28;19922;-62
2023/07/12 07:00:17;;;;;;;;;;;;;;;;;;5035032;28;19928;-62
2023/07/12 07:02:43;;;;;;;;;;;;;;;;;;5034761;28;20003;-62
2023/07/12 07:05:09;;;;;;;;;;;;;;;;;;5034801;28;19972;-62
2023/07/12 07:07:35;;;;;;;;;;;;;;;;;;5033355;28;19921;-62
2023/07/12 07:10:01;;;;;;;;;;;;;;;;;;5034956;28;19925;-62
2023/07/12 07:12:27;;;;;;;;;;;;;;;;;;5034379;28;19929;-62
2023/07/12 07:14:53;;;;;;;;;;;;;;;;;;5034705;28;19928;-62
2023/07/12 07:17:20;;;;;;;;;;;;;;;;;;5034157;28;20259;-62
2023/07/12 07:19:46;;;;;;;;;;;;;;;;;;5033050;28;19928;-63
2023/07/12 07:22:12;;;;;;;;;;;;;;;;;;5033348;28;19925;-62
2023/07/12 07:24:38;;;;;;;;;;;;;;;;;;5034312;28;19932;-62
2023/07/12 07:27:04;;;;;;;;;;;;;;;;;;5034192;28;20010;-62
2023/07/12 07:29:30;;;;;;;;;;;;;;;;;;5034158;28;19921;-62
2023/07/12 07:31:56;;;;;;;;;;;;;;;;;;5034041;28;19972;-62
2023/07/12 07:34:22;;;;;;;;;;;;;;;;;;5033839;28;20019;-62
2023/07/12 07:36:48;;;;;;;;;;;;;;;;;;5033826;28;19951;-62
2023/07/12 07:39:14;;;;;;;;;;;;;;;;;;5033693;28;19922;-62
2023/07/12 07:41:40;;;;;;;;;;;;;;;;;;5034025;28;19929;-62
2023/07/12 07:44:06;;;;;;;;;;;;;;;;;;5034066;28;19925;-62
2023/07/12 07:46:32;;;;;;;;;;;;;;;;;;5033890;28;19921;-62
2023/07/12 07:48:58;;;;;;;;;;;;;;;;;;5032452;28;19936;-62
2023/07/12 07:51:24;;;;;;;;;;;;;;;;;;5033601;28;19925;-62
2023/07/12 07:53:49;;;;;;;;;;;;;;;;;;5033820;28;20255;-62
2023/07/12 07:56:15;;;;;;;;;;;;;;;;;;5033704;28;19968;-62
2023/07/12 07:58:41;;;;;;;;;;;;;;;;;;5032157;28;19964;-62
2023/07/12 08:01:07;;;;;;;;;;;;;;;;;;5032512;28;19924;-62
2023/07/12 08:03:34;;;;;;;;;;;;;;;;;;5033569;28;19925;-62
2023/07/12 08:06:00;;;;;;;;;;;;;;;;;;5032326;28;19925;-62
2023/07/12 08:08:27;;;;;;;;;;;;;;;;;;5033536;28;19932;-62
2023/07/12 08:10:54;;;;;;;;;;;;;;;;;;5033726;28;19957;-62
2023/07/12 08:13:20;;;;;;;;;;;;;;;;;;5033519;28;20371;-62
2023/07/12 08:15:46;;;;;;;;;;;;;;;;;;5033356;28;19921;-62
2023/07/12 08:18:12;;;;;;;;;;;;;;;;;;5033257;28;20716;-62
2023/07/12 08:20:38;;;;;;;;;;;;;;;;;;5033324;28;19925;-62
2023/07/12 08:23:04;;;;;;;;;;;;;;;;;;5033190;28;20336;-62
2023/07/12 08:25:30;;;;;;;;;;;;;;;;;;5033247;28;19921;-62
2023/07/12 08:27:56;;;;;;;;;;;;;;;;;;5033321;28;20008;-61
2023/07/12 08:30:22;;;;;;;;;;;;;;;;;;5032553;28;19921;-62
2023/07/12 08:32:48;;;;;;;;;;;;;;;;;;5031025;28;19932;-62
2023/07/12 08:35:14;;;;;;;;;;;;;;;;;;5031492;28;19921;-62
2023/07/12 08:37:40;;;;;;;;;;;;;;;;;;5032195;28;19988;-62
2023/07/12 08:40:06;;;;;;;;;;;;;;;;;;5032250;28;20303;-62
2023/07/12 08:42:32;;;;;;;;;;;;;;;;;;5031792;28;19921;-62
2023/07/12 08:44:58;;;;;;;;;;;;;;;;;;5032753;28;20442;-62
2023/07/12 08:47:24;;;;;;;;;;;;;;;;;;5031634;28;20251;-62
2023/07/12 08:49:50;;;;;;;;;;;;;;;;;;5032736;28;19930;-62
2023/07/12 08:52:16;;;;;;;;;;;;;;;;;;5032856;28;19925;-62
2023/07/12 08:54:43;;;;;;;;;;;;;;;;;;5032509;28;20004;-62
2023/07/12 08:57:09;;;;;;;;;;;;;;;;;;5032643;28;19947;-62
2023/07/12 08:59:35;;;;;;;;;;;;;;;;;;5032422;28;20003;-62
2023/07/12 09:02:01;;;;;;;;;;;;;;;;;;5032517;28;19925;-62
2023/07/12 09:04:27;;;;;;;;;;;;;;;;;;5032331;28;19927;-62
2023/07/12 09:06:53;;;;;;;;;;;;;;;;;;5014650;28;19920;-62
2023/07/12 09:09:19;;;;;;;;;;;;;;;;;;5032484;28;19977;-62
2023/07/12 09:11:45;;;;;;;;;;;;;;;;;;5030991;28;19921;-62
2023/07/12 09:14:11;;;;;;;;;;;;;;;;;;5032259;28;20562;-62
2023/07/12 09:16:37;;;;;;;;;;;;;;;;;;5032189;28;20019;-62
2023/07/12 09:19:03;;;;;;;;;;;;;;;;;;5032427;28;19925;-61
2023/07/12 09:21:32;;;;;;;;;;;;;;;;;;5032461;28;19928;-62
2023/07/12 09:23:58;;;;;;;;;;;;;;;;;;5032392;28;19971;-62
2023/07/12 09:26:24;;;;;;;;;;;;;;;;;;5031067;28;19925;-62
2023/07/12 09:28:50;;;;;;;;;;;;;;;;;;5032268;28;19921;-62
2023/07/12 09:31:16;;;;;;;;;;;;;;;;;;5031983;28;19921;-62
2023/07/12 09:33:42;;;;;;;;;;;;;;;;;;5032115;28;19929;-62
2023/07/12 09:36:08;;;;;;;;;;;;;;;;;;5031918;28;20074;-63
2023/07/12 09:38:34;;;;;;;;;;;;;;;;;;5032148;28;19964;-62
2023/07/12 09:41:00;;;;;;;;;;;;;;;;;;5031757;28;20011;-62
2023/07/12 09:43:26;;;;;;;;;;;;;;;;;;5031986;28;19925;-62
2023/07/12 09:45:52;;;;;;;;;;;;;;;;;;5031494;28;19925;-62
2023/07/12 09:48:18;;;;;;;;;;;;;;;;;;5030686;28;19921;-62
2023/07/12 09:50:44;;;;;;;;;;;;;;;;;;5030401;28;20565;-62
2023/07/12 09:53:09;;;;;;;;;;;;;;;;;;5013134;28;19929;-62
2023/07/12 09:55:35;;;;;;;;;;;;;;;;;;5012022;28;19931;-62
2023/07/12 09:58:02;;;;;;;;;;;;;;;;;;5012099;28;20390;-62
2023/07/12 10:00:28;;;;;;;;;;;;;;;;;;5011880;28;20362;-62
2023/07/12 10:02:53;;;;;;;;;;;;;;;;;;5012254;28;20044;-62
2023/07/12 10:05:19;;;;;;;;;;;;;;;;;;5012066;28;19921;-62
2023/07/12 10:07:45;;;;;;;;;;;;;;;;;;5012006;28;20385;-62
2023/07/12 10:10:11;;;;;;;;;;;;;;;;;;5011965;28;19929;-62
2023/07/12 10:12:37;;;;;;;;;;;;;;;;;;5011923;28;19929;-62
2023/07/12 10:15:03;;;;;;;;;;;;;;;;;;5010475;28;19995;-61
2023/07/12 10:17:29;;;;;;;;;;;;;;;;;;5012082;28;19921;-62
2023/07/12 10:19:56;;;;;;;;;;;;;;;;;;5011826;28;20606;-62
2023/07/12 10:22:21;;;;;;;;;;;;;;;;;;5011857;28;20318;-62
2023/07/12 10:24:47;;;;;;;;;;;;;;;;;;5011883;28;19922;-62
2023/07/12 10:27:13;;;;;;;;;;;;;;;;;;5009900;28;20281;-62
2023/07/12 10:29:39;;;;;;;;;;;;;;;;;;5011006;28;19925;-62
2023/07/12 10:32:07;;;;;;;;;;;;;;;;;;5009418;28;21288;-62
2023/07/12 10:34:33;;;;;;;;;;;;;;;;;;5011195;28;19931;-62
2023/07/12 10:36:59;;;;;;;;;;;;;;;;;;5010997;28;19936;-62
2023/07/12 10:39:25;;;;;;;;;;;;;;;;;;5011484;28;19926;-62
2023/07/12 10:41:50;;;;;;;;;;;;;;;;;;5011667;28;19976;-62
2023/07/12 10:44:16;;;;;;;;;;;;;;;;;;5010373;28;19925;-61
2023/07/12 10:46:42;;;;;;;;;;;;;;;;;;5011585;28;20322;-62
2023/07/12 10:49:08;;;;;;;;;;;;;;;;;;5011776;28;19925;-61
2023/07/12 10:51:34;;;;;;;;;;;;;;;;;;5011584;28;19937;-61
2023/07/12 10:54:00;;;;;;;;;;;;;;;;;;5011610;28;19929;-62
2023/07/12 10:56:26;;;;;;;;;;;;;;;;;;5011483;28;20355;-62
2023/07/12 10:58:52;;;;;;;;;;;;;;;;;;5014045;28;19929;-61
2023/07/12 11:01:18;;;;;;;;;;;;;;;;;;5015189;28;19925;-62
2023/07/12 11:03:47;;;;;;;;;;;;;;;;;;5015085;28;19922;-61
2023/07/12 11:06:13;;;;;;;;;;;;;;;;;;5014507;28;19991;-62
2023/07/12 11:08:39;;;;;;;;;;;;;;;;;;5012931;28;19969;-62
2023/07/12 11:11:05;;;;;;;;;;;;;;;;;;5029886;28;19925;-62
2023/07/12 11:13:31;;;;;;;;;;;;;;;;;;5034254;28;19932;-62
2023/07/12 11:15:57;;;;;;;;;;;;;;;;;;5033876;28;19944;-61
2023/07/12 11:18:24;;;;;;;;;;;;;;;;;;5033804;28;19929;-62
2023/07/12 11:20:50;;;;;;;;;;;;;;;;;;5033505;28;20370;-62
2023/07/12 11:23:16;;;;;;;;;;;;;;;;;;5033441;28;19921;-62
2023/07/12 11:25:42;;;;;;;;;;;;;;;;;;5033507;28;20294;-62
2023/07/12 11:28:08;;;;;;;;;;;;;;;;;;5033245;28;19925;-62
2023/07/12 11:30:34;;;;;;;;;;;;;;;;;;5033424;28;19925;-62
2023/07/12 11:32:59;;;;;;;;;;;;;;;;;;5031979;28;19932;-62
2023/07/12 11:35:26;;;;;;;;;;;;;;;;;;5032405;28;19925;-62
2023/07/12 11:37:51;;;;;;;;;;;;;;;;;;5034034;28;20055;-62
2023/07/12 11:40:17;;;;;;;;;;;;;;;;;;5034102;28;19925;-62
2023/07/12 11:42:43;;;;;;;;;;;;;;;;;;5034010;28;20329;-62
2023/07/12 11:45:09;;;;;;;;;;;;;;;;;;5034132;28;19925;-62
2023/07/12 11:47:35;;;;;;;;;;;;;;;;;;5016134;28;19956;-62
2023/07/12 11:50:01;;;;;;;;;;;;;;;;;;5033990;28;19921;-62
2023/07/12 11:52:27;;;;;;;;;;;;;;;;;;5033790;28;19979;-62
2023/07/12 11:54:53;;;;;;;;;;;;;;;;;;5033771;28;19932;-62
2023/07/12 11:57:19;;;;;;;;;;;;;;;;;;5034164;28;19995;-62
2023/07/12 11:59:45;;;;;;;;;;;;;;;;;;5033980;28;20000;-62
2023/07/12 12:02:11;;;;;;;;;;;;;;;;;;5032390;28;20008;-62
2023/07/12 12:04:37;;;;;;;;;;;;;;;;;;5033657;28;19924;-61
2023/07/12 12:07:02;;;;;;;;;;;;;;;;;;5033659;28;19972;-62
2023/07/12 12:09:28;;;;;;;;;;;;;;;;;;5033487;28;19925;-62
2023/07/12 12:11:54;;;;;;;;;;;;;;;;;;5033486;28;19932;-62
2023/07/12 12:14:20;;;;;;;;;;;;;;;;;;5033659;28;19931;-62
2023/07/12 12:16:46;;;;;;;;;;;;;;;;;;5033541;28;19922;-62
2023/07/12 12:19:12;;;;;;;;;;;;;;;;;;5033463;28;20321;-62
2023/07/12 12:21:38;;;;;;;;;;;;;;;;;;5033455;28;19921;-62
2023/07/12 12:24:04;;;;;;;;;;;;;;;;;;5033262;28;20373;-61
2023/07/12 12:26:30;;;;;;;;;;;;;;;;;;5032857;28;19921;-62
2023/07/12 12:28:56;;;;;;;;;;;;;;;;;;5031481;28;19928;-61
2023/07/12 12:31:22;;;;;;;;;;;;;;;;;;5032692;28;19943;-62
2023/07/12 12:33:48;;;;;;;;;;;;;;;;;;5032644;28;20409;-62
2023/07/12 12:36:13;;;;;;;;;;;;;;;;;;5032657;28;20069;-62
2023/07/12 12:38:39;;;;;;;;;;;;;;;;;;5031581;28;20012;-62
2023/07/12 12:41:05;;;;;;;;;;;;;;;;;;5033226;28;20266;-62
2023/07/12 12:43:31;;;;;;;;;;;;;;;;;;5032973;28;19971;-62
2023/07/12 12:45:57;;;;;;;;;;;;;;;;;;5032966;28;19922;-61
2023/07/12 12:48:23;;;;;;;;;;;;;;;;;;5032900;28;19921;-61
2023/07/12 12:50:50;;;;;;;;;;;;;;;;;;5032910;28;19925;-61
2023/07/12 12:53:18;;;;;;;;;;;;;;;;;;5032558;28;19979;-61
2023/07/12 12:55:44;;;;;;;;;;;;;;;;;;5032698;28;20338;-61
2023/07/12 12:58:10;;;;;;;;;;;;;;;;;;5032778;28;19928;-61
2023/07/12 13:00:36;;;;;;;;;;;;;;;;;;5032766;28;19925;-61
2023/07/12 13:03:03;;;;;;;;;;;;;;;;;;5032602;28;19947;-62
2023/07/12 13:05:29;;;;;;;;;;;;;;;;;;5032547;28;19925;-61
2023/07/12 13:07:55;;;;;;;;;;;;;;;;;;5032473;28;19925;-61
2023/07/12 13:10:21;;;;;;;;;;;;;;;;;;5032417;28;20002;-61
2023/07/12 13:12:46;;;;;;;;;;;;;;;;;;5032426;28;20015;-61
2023/07/12 13:15:12;;;;;;;;;;;;;;;;;;5032353;28;19967;-61
2023/07/12 13:17:38;;;;;;;;;;;;;;;;;;5032445;28;19929;-61
2023/07/12 13:20:04;;;;;;;;;;;;;;;;;;5031898;28;19921;-61
2023/07/12 13:22:30;;;;;;;;;;;;;;;;;;5032126;28;19990;-61
2023/07/12 13:24:56;;;;;;;;;;;;;;;;;;5032339;28;19921;-61
2023/07/12 13:27:22;;;;;;;;;;;;;;;;;;5032340;28;19960;-61
2023/07/12 13:29:48;;;;;;;;;;;;;;;;;;5032178;28;19929;-61
2023/07/12 13:32:14;;;;;;;;;;;;;;;;;;5032020;28;20302;-61
2023/07/12 13:34:40;;;;;;;;;;;;;;;;;;5032110;28;20351;-61
2023/07/12 13:37:05;;;;;;;;;;;;;;;;;;5031842;28;19929;-61
2023/07/12 13:39:31;;;;;;;;;;;;;;;;;;5031888;28;20067;-61
2023/07/12 13:41:57;;;;;;;;;;;;;;;;;;5032158;28;19966;-61
2023/07/12 13:44:23;;;;;;;;;;;;;;;;;;5031998;28;19921;-61
2023/07/12 13:46:49;;;;;;;;;;;;;;;;;;5030622;28;20010;-61
2023/07/12 13:49:16;;;;;;;;;;;;;;;;;;5031843;28;19925;-61
2023/07/12 13:51:42;;;;;;;;;;;;;;;;;;5031768;28;20113;-61
2023/07/12 13:54:08;;;;;;;;;;;;;;;;;;5031947;28;20019;-61
2023/07/12 13:56:34;;;;;;;;;;;;;;;;;;5031948;28;19931;-61
2023/07/12 13:59:00;;;;;;;;;;;;;;;;;;5031696;28;19924;-61
2023/07/12 14:01:26;;;;;;;;;;;;;;;;;;5031838;28;20002;-61
2023/07/12 14:03:52;;;;;;;;;;;;;;;;;;5031675;28;19960;-61
2023/07/12 14:06:18;;;;;;;;;;;;;;;;;;5031705;28;20448;-61
2023/07/12 14:08:44;;;;;;;;;;;;;;;;;;5030361;28;20008;-61
2023/07/12 14:11:10;;;;;;;;;;;;;;;;;;5031697;28;20034;-61
2023/07/12 14:13:36;;;;;;;;;;;;;;;;;;5031519;28;19925;-61
2023/07/12 14:16:02;;;;;;;;;;;;;;;;;;5030197;28;19928;-61
2023/07/12 14:18:28;;;;;;;;;;;;;;;;;;5031708;28;19921;-61
2023/07/12 14:20:55;;;;;;;;;;;;;;;;;;5031440;28;19932;-61
2023/07/12 14:23:20;;;;;;;;;;;;;;;;;;5030882;28;20428;-61
2023/07/12 14:25:46;;;;;;;;;;;;;;;;;;5030711;28;20012;-61
2023/07/12 14:28:12;;;;;;;;;;;;;;;;;;5031170;28;19975;-61
2023/07/12 14:30:38;;;;;;;;;;;;;;;;;;5030742;28;19933;-61
2023/07/12 14:33:04;;;;;;;;;;;;;;;;;;5032116;28;19925;-61
2023/07/12 14:35:30;;;;;;;;;;;;;;;;;;5035120;28;20019;-61
2023/07/12 14:37:56;;;;;;;;;;;;;;;;;;5035244;28;19968;-61
2023/07/12 14:40:22;;;;;;;;;;;;;;;;;;5035243;28;19921;-61
2023/07/12 14:42:48;;;;;;;;;;;;;;;;;;5035452;28;19925;-61
2023/07/12 14:45:14;;;;;;;;;;;;;;;;;;5035113;28;19932;-61
2023/07/12 14:47:40;;;;;;;;;;;;;;;;;;5035189;28;20393;-61
2023/07/12 14:50:06;;;;;;;;;;;;;;;;;;5035059;28;20391;-61
2023/07/12 14:52:32;;;;;;;;;;;;;;;;;;5034878;28;20015;-61
2023/07/12 14:54:58;;;;;;;;;;;;;;;;;;5035178;28;19984;-61
2023/07/12 14:57:24;;;;;;;;;;;;;;;;;;5035092;28;19964;-61
2023/07/12 14:59:52;;;;;;;;;;;;;;;;;;5034978;28;20340;-61
2023/07/12 15:02:18;;;;;;;;;;;;;;;;;;5034933;28;19921;-61
2023/07/12 15:04:44;;;;;;;;;;;;;;;;;;5033489;28;19922;-61
2023/07/12 15:07:09;;;;;;;;;;;;;;;;;;5033287;28;19953;-61
2023/07/12 15:09:35;;;;;;;;;;;;;;;;;;5034936;28;19980;-61
2023/07/12 15:12:01;;;;;;;;;;;;;;;;;;5034639;28;19974;-61
2023/07/12 15:14:27;;;;;;;;;;;;;;;;;;5033337;28;20408;-61
2023/07/12 15:16:54;;;;;;;;;;;;;;;;;;5034543;28;19925;-61
2023/07/12 15:19:20;;;;;;;;;;;;;;;;;;5034454;28;19921;-61
2023/07/12 15:21:46;;;;;;;;;;;;;;;;;;5034409;28;19943;-61
2023/07/12 15:24:12;;;;;;;;;;;;;;;;;;5034573;28;19925;-61
2023/07/12 15:26:38;;;;;;;;;;;;;;;;;;5034461;28;19928;-61
2023/07/12 15:29:03;;;;;;;;;;;;;;;;;;5034436;28;19924;-61
2023/07/12 15:31:29;;;;;;;;;;;;;;;;;;5034272;28;19921;-61
2023/07/12 15:33:55;;;;;;;;;;;;;;;;;;5032774;28;19951;-61
2023/07/12 15:36:21;;;;;;;;;;;;;;;;;;5034114;28;19931;-61
2023/07/12 15:38:47;;;;;;;;;;;;;;;;;;5034310;28;20371;-61
2023/07/12 15:41:13;;;;;;;;;;;;;;;;;;5034134;28;19956;-61
2023/07/12 15:43:39;;;;;;;;;;;;;;;;;;5032244;28;19929;-61
2023/07/12 15:46:05;;;;;;;;;;;;;;;;;;5034005;28;20279;-61
2023/07/12 15:48:31;;;;;;;;;;;;;;;;;;5034002;28;19921;-61
2023/07/12 15:50:57;;;;;;;;;;;;;;;;;;5034034;28;19925;-61
2023/07/12 15:53:24;;;;;;;;;;;;;;;;;;5034037;28;19929;-61
2023/07/12 15:55:49;;;;;;;;;;;;;;;;;;5032749;28;19921;-61
2023/07/12 15:58:15;;;;;;;;;;;;;;;;;;5032874;28;20487;-61
2023/07/12 16:00:42;;;;;;;;;;;;;;;;;;5033817;28;20370;-61
2023/07/12 16:03:08;;;;;;;;;;;;;;;;;;5033645;28;19998;-61
2023/07/12 16:05:34;;;;;;;;;;;;;;;;;;5033968;28;20051;-61
2023/07/12 16:08:00;;;;;;;;;;;;;;;;;;5016313;28;20441;-61
2023/07/12 16:10:26;;;;;;;;;;;;;;;;;;5014062;28;19928;-61
2023/07/12 16:12:52;;;;;;;;;;;;;;;;;;5013742;28;19926;-61
2023/07/12 16:15:18;;;;;;;;;;;;;;;;;;5013766;28;19956;-61
2023/07/12 16:17:44;;;;;;;;;;;;;;;;;;5013614;28;19926;-61
2023/07/12 16:20:11;;;;;;;;;;;;;;;;;;5012997;28;19921;-60
2023/07/12 16:22:38;;;;;;;;;;;;;;;;;;5012745;28;20352;-61
2023/07/12 16:25:04;;;;;;;;;;;;;;;;;;5013193;28;19927;-61
2023/07/12 16:27:29;;;;;;;;;;;;;;;;;;5012687;28;20024;-61
2023/07/12 16:29:55;;;;;;;;;;;;;;;;;;5012644;28;20380;-61
2023/07/12 16:32:21;;;;;;;;;;;;;;;;;;5013067;28;19972;-61
2023/07/12 16:34:47;;;;;;;;;;;;;;;;;;5013504;28;19968;-61
2023/07/12 16:37:14;;;;;;;;;;;;;;;;;;5013257;28;19929;-61
2023/07/12 16:39:40;;;;;;;;;;;;;;;;;;5013229;28;20446;-61